createdAt,value
2022-11-26T00:01:14.890Z,28.40
2022-11-26T00:03:42.125Z,27.57
2022-11-26T00:06:21.176Z,26.60
2022-11-26T00:08:47.750Z,27.50
2022-11-26T00:11:15.606Z,26.63
2022-11-26T00:13:42.162Z,27.10
2022-11-26T00:16:15.451Z,28.50
2022-11-26T00:18:42.319Z,26.63
2022-11-26T00:21:21.142Z,25.43
2022-11-26T00:23:47.816Z,25.87
2022-11-26T00:26:19.176Z,26.97
2022-11-26T00:28:53.692Z,27.00
2022-11-26T00:31:20.821Z,25.90
2022-11-26T00:33:47.758Z,24.70
2022-11-26T00:36:22.564Z,27.60
2022-11-26T00:38:54.948Z,26.80
2022-11-26T00:41:23.850Z,28.43
2022-11-26T00:43:50.904Z,28.07
2022-11-26T00:46:19.020Z,27.17
2022-11-26T00:48:45.991Z,30.10
2022-11-26T00:51:14.798Z,26.70
2022-11-26T00:53:41.927Z,29.17
2022-11-26T00:56:12.914Z,24.70
2022-11-26T00:58:39.479Z,23.23
2022-11-26T01:01:06.126Z,25.43
2022-11-26T01:03:32.962Z,25.37
2022-11-26T01:05:59.986Z,24.80
2022-11-26T01:08:28.526Z,25.97
2022-11-26T01:10:55.254Z,25.40
2022-11-26T01:13:21.978Z,26.57
2022-11-26T01:15:48.671Z,28.03
2022-11-26T01:18:16.849Z,26.40
2022-11-26T01:20:43.544Z,28.10
2022-11-26T01:23:11.326Z,29.50
2022-11-26T01:25:38.179Z,26.27
2022-11-26T01:28:05.109Z,27.80
2022-11-26T01:30:33.032Z,28.13
2022-11-26T01:33:00.958Z,30.47
2022-11-26T01:35:28.452Z,27.43
2022-11-26T01:37:55.593Z,27.60
2022-11-26T01:40:25.131Z,29.20
2022-11-26T01:42:53.933Z,26.50
2022-11-26T01:45:22.593Z,26.90
2022-11-26T01:47:49.690Z,25.40
2022-11-26T01:50:31.506Z,23.23
2022-11-26T01:53:00.693Z,17.97
2022-11-26T01:55:31.123Z,17.33
2022-11-26T01:57:57.790Z,16.87
2022-11-26T02:00:24.361Z,23.70
2022-11-26T02:02:50.954Z,18.40
2022-11-26T02:05:17.674Z,14.33
2022-11-26T02:07:45.062Z,15.97
2022-11-26T02:10:12.900Z,14.73
2022-11-26T02:12:40.378Z,15.20
2022-11-26T02:15:07.240Z,17.10
2022-11-26T02:17:49.119Z,16.80
2022-11-26T02:20:31.841Z,19.07
2022-11-26T02:23:06.253Z,18.30
2022-11-26T02:25:36.087Z,18.67
2022-11-26T02:28:21.261Z,19.03
2022-11-26T02:30:58.887Z,17.10
2022-11-26T02:33:31.279Z,19.90
2022-11-26T02:36:14.807Z,16.50
2022-11-26T02:38:41.590Z,17.90
2022-11-26T02:41:09.002Z,18.20
2022-11-26T02:43:36.344Z,16.23
2022-11-26T02:46:05.797Z,18.67
2022-11-26T02:48:36.647Z,16.33
2022-11-26T02:51:10.243Z,20.20
2022-11-26T02:53:37.748Z,18.43
2022-11-26T02:56:19.514Z,17.80
2022-11-26T02:58:46.101Z,15.90
2022-11-26T03:01:16.661Z,19.30
2022-11-26T03:03:46.982Z,17.57
2022-11-26T03:06:14.446Z,15.33
2022-11-26T03:08:41.017Z,17.30
2022-11-26T03:11:07.617Z,20.00
2022-11-26T03:13:34.104Z,19.37
2022-11-26T03:16:00.787Z,18.50
2022-11-26T03:18:27.602Z,22.27
2022-11-26T03:20:54.451Z,19.93
2022-11-26T03:23:21.138Z,20.07
2022-11-26T03:25:47.792Z,23.47
2022-11-26T03:28:14.412Z,22.90
2022-11-26T03:30:40.957Z,22.60
2022-11-26T03:33:07.506Z,22.37
2022-11-26T03:35:34.038Z,25.77
2022-11-26T03:38:00.643Z,24.57
2022-11-26T03:40:27.292Z,21.97
2022-11-26T03:42:53.857Z,22.27
2022-11-26T03:45:20.484Z,27.03
2022-11-26T03:47:47.050Z,22.03
2022-11-26T03:50:13.593Z,25.70
2022-11-26T03:52:40.164Z,29.07
2022-11-26T03:55:07.025Z,30.90
2022-11-26T03:57:34.739Z,30.00
2022-11-26T04:00:01.403Z,30.97
2022-11-26T04:02:31.249Z,30.20
2022-11-26T04:04:57.870Z,28.67
2022-11-26T04:07:24.576Z,28.43
2022-11-26T04:09:51.262Z,27.07
2022-11-26T04:12:17.962Z,32.17
2022-11-26T04:14:44.542Z,30.03
2022-11-26T04:17:12.032Z,32.03
2022-11-26T04:19:38.548Z,31.60
2022-11-26T04:22:05.068Z,30.90
2022-11-26T04:24:31.780Z,30.93
2022-11-26T04:26:58.331Z,29.53
2022-11-26T04:29:24.818Z,25.87
2022-11-26T04:31:51.431Z,65.87
2022-11-26T04:34:17.962Z,69.47
2022-11-26T04:36:44.675Z,79.83
2022-11-26T04:39:12.498Z,60.83
2022-11-26T04:41:39.113Z,74.83
2022-11-26T04:44:05.769Z,68.77
2022-11-26T04:46:32.291Z,58.00
2022-11-26T04:48:58.894Z,43.00
2022-11-26T04:51:25.773Z,40.87
2022-11-26T04:53:55.790Z,41.90
2022-11-26T04:56:23.307Z,48.03
2022-11-26T04:58:49.856Z,42.83
2022-11-26T05:01:16.454Z,37.30
2022-11-26T05:03:43.073Z,33.67
2022-11-26T05:06:10.799Z,40.97
2022-11-26T05:08:37.519Z,64.80
2022-11-26T05:11:04.115Z,52.40
2022-11-26T05:13:30.638Z,39.03
2022-11-26T05:15:57.172Z,39.33
2022-11-26T05:18:23.734Z,39.07
2022-11-26T05:20:50.224Z,33.03
2022-11-26T05:23:16.901Z,29.17
2022-11-26T05:25:43.427Z,29.57
2022-11-26T05:28:10.465Z,30.03
2022-11-26T05:30:37.334Z,31.10
2022-11-26T05:33:04.048Z,30.40
2022-11-26T05:35:30.601Z,29.33
2022-11-26T05:37:57.213Z,31.03
2022-11-26T05:40:23.870Z,33.50
2022-11-26T05:42:50.372Z,34.47
2022-11-26T05:45:16.970Z,25.00
2022-11-26T05:47:43.566Z,24.37
2022-11-26T05:50:10.322Z,27.13
2022-11-26T05:52:36.911Z,33.10
2022-11-26T05:55:03.610Z,31.97
2022-11-26T05:57:30.091Z,27.00
2022-11-26T05:59:56.808Z,29.30
2022-11-26T06:02:23.519Z,34.70
2022-11-26T06:04:50.397Z,31.57
2022-11-26T06:07:16.941Z,31.07
2022-11-26T06:09:43.538Z,30.37
2022-11-26T06:12:10.160Z,30.27
2022-11-26T06:14:41.608Z,27.73
2022-11-26T06:17:09.615Z,24.70
2022-11-26T06:19:36.147Z,26.77
2022-11-26T06:22:03.066Z,27.27
2022-11-26T06:24:29.614Z,24.80
2022-11-26T06:26:56.281Z,29.00
2022-11-26T06:29:27.769Z,35.03
2022-11-26T06:31:55.105Z,30.40
2022-11-26T06:34:22.100Z,44.97
2022-11-26T06:36:48.598Z,27.47
2022-11-26T06:39:15.290Z,30.80
2022-11-26T06:41:41.855Z,35.00
2022-11-26T06:44:08.436Z,29.00
2022-11-26T06:46:35.454Z,30.40
2022-11-26T06:49:02.595Z,45.93
2022-11-26T06:51:29.187Z,55.30
2022-11-26T06:53:55.733Z,47.80
2022-11-26T06:56:22.507Z,58.97
2022-11-26T06:58:49.687Z,63.37
2022-11-26T07:01:17.533Z,76.33
2022-11-26T07:03:44.073Z,52.57
2022-11-26T07:06:18.182Z,68.03
2022-11-26T07:08:45.003Z,58.07
2022-11-26T07:11:11.905Z,49.57
2022-11-26T07:13:38.650Z,33.97
2022-11-26T07:16:05.813Z,33.97
2022-11-26T07:18:32.450Z,31.93
2022-11-26T07:21:03.799Z,76.67
2022-11-26T07:23:30.255Z,67.47
2022-11-26T07:26:00.282Z,31.33
2022-11-26T07:28:27.593Z,24.30
2022-11-26T07:30:55.231Z,24.77
2022-11-26T07:33:21.748Z,24.80
2022-11-26T07:35:48.515Z,30.03
2022-11-26T07:38:15.094Z,26.87
2022-11-26T07:40:41.698Z,26.60
2022-11-26T07:43:08.220Z,24.80
2022-11-26T07:45:38.946Z,24.67
2022-11-26T07:48:05.646Z,25.97
2022-11-26T07:50:32.192Z,36.73
2022-11-26T07:52:58.878Z,48.63
2022-11-26T07:55:25.538Z,25.50
2022-11-26T07:57:52.018Z,22.17
2022-11-26T08:00:18.939Z,20.23
2022-11-26T08:02:45.615Z,19.50
2022-11-26T08:05:12.246Z,17.43
2022-11-26T08:07:38.810Z,17.17
2022-11-26T08:10:05.727Z,18.93
2022-11-26T08:12:32.284Z,24.63
2022-11-26T08:14:58.835Z,20.43
2022-11-26T08:17:25.583Z,17.60
2022-11-26T08:19:52.118Z,16.27
2022-11-26T08:22:18.827Z,14.20
2022-11-26T08:24:45.405Z,14.20
2022-11-26T08:27:12.379Z,15.27
2022-11-26T08:29:38.892Z,15.40
2022-11-26T08:32:05.449Z,13.53
2022-11-26T08:34:33.231Z,12.10
2022-11-26T08:37:00.278Z,12.50
2022-11-26T08:39:26.898Z,10.20
2022-11-26T08:41:53.394Z,11.27
2022-11-26T08:44:20.686Z,12.53
2022-11-26T08:46:47.212Z,43.30
2022-11-26T08:49:15.054Z,84.87
2022-11-26T08:51:41.766Z,43.70
2022-11-26T08:54:08.445Z,25.50
2022-11-26T08:56:35.014Z,21.77
2022-11-26T08:59:01.741Z,15.67
2022-11-26T09:01:29.395Z,12.53
2022-11-26T09:03:57.197Z,12.33
2022-11-26T09:06:24.682Z,18.47
2022-11-26T09:09:09.914Z,11.53
2022-11-26T09:11:37.563Z,11.53
2022-11-26T09:14:04.599Z,13.57
2022-11-26T09:16:31.445Z,13.50
2022-11-26T09:19:01.611Z,14.63
2022-11-26T09:21:28.461Z,14.90
2022-11-26T09:23:55.111Z,16.93
2022-11-26T09:26:22.138Z,10.53
2022-11-26T09:28:49.299Z,12.43
2022-11-26T09:31:16.429Z,7.27
2022-11-26T09:33:43.318Z,8.30
2022-11-26T09:36:11.332Z,9.63
2022-11-26T09:38:37.878Z,8.23
2022-11-26T09:41:07.464Z,7.23
2022-11-26T09:44:09.414Z,7.83
2022-11-26T09:47:10.037Z,6.77
2022-11-26T09:49:34.645Z,6.23
2022-11-26T09:52:03.231Z,7.90
2022-11-26T09:54:30.451Z,9.70
2022-11-26T09:57:01.023Z,17.13
2022-11-26T09:59:29.313Z,14.10
2022-11-26T10:01:56.134Z,9.67
2022-11-26T10:04:24.645Z,9.87
2022-11-26T10:07:00.474Z,8.40
2022-11-26T10:09:27.054Z,6.10
2022-11-26T10:12:05.505Z,5.37
2022-11-26T10:14:32.002Z,4.83
2022-11-26T10:17:07.724Z,5.07
2022-11-26T10:19:41.101Z,5.70
2022-11-26T10:22:16.082Z,6.70
2022-11-26T10:24:43.134Z,6.70
2022-11-26T10:27:14.457Z,9.60
2022-11-26T10:29:42.138Z,6.17
2022-11-26T10:32:18.094Z,7.83
2022-11-26T10:34:49.774Z,6.17
2022-11-26T10:37:17.054Z,5.20
2022-11-26T10:39:43.876Z,5.87
2022-11-26T10:42:16.092Z,5.60
2022-11-26T10:44:42.995Z,6.63
2022-11-26T10:47:21.514Z,5.03
2022-11-26T10:49:48.776Z,5.83
2022-11-26T10:52:17.155Z,4.47
2022-11-26T10:54:45.261Z,7.60
2022-11-26T10:57:17.116Z,6.40
2022-11-26T10:59:43.731Z,4.70
2022-11-26T11:02:22.543Z,5.70
2022-11-26T11:04:50.707Z,4.93
2022-11-26T11:07:38.723Z,5.20
2022-11-26T11:10:08.275Z,4.73
2022-11-26T11:12:35.340Z,4.93
2022-11-26T11:15:20.411Z,5.80
2022-11-26T11:17:53.632Z,4.37
2022-11-26T11:20:26.971Z,5.93
2022-11-26T11:22:57.710Z,3.97
2022-11-26T11:25:31.981Z,4.00
2022-11-26T11:28:12.052Z,5.87
2022-11-26T11:30:39.722Z,3.97
2022-11-26T11:33:32.870Z,4.23
2022-11-26T11:36:05.832Z,4.60
2022-11-26T11:38:34.237Z,3.97
2022-11-26T11:41:02.699Z,4.70
2022-11-26T11:43:34.299Z,4.63
2022-11-26T11:46:12.679Z,5.47
2022-11-26T11:48:48.317Z,4.83
2022-11-26T11:51:37.227Z,4.80
2022-11-26T11:54:19.862Z,5.03
2022-11-26T11:56:50.631Z,4.77
2022-11-26T11:59:37.086Z,9.03
2022-11-26T12:02:17.096Z,4.50
2022-11-26T12:04:43.777Z,4.13
2022-11-26T12:07:25.710Z,4.47
2022-11-26T12:10:01.467Z,3.80
2022-11-26T12:12:39.063Z,5.27
2022-11-26T12:15:35.223Z,3.27
2022-11-26T12:18:10.904Z,3.43
2022-11-26T12:20:44.182Z,3.60
2022-11-26T12:23:22.613Z,5.33
2022-11-26T12:26:10.871Z,4.30
2022-11-26T12:28:40.493Z,3.73
2022-11-26T12:31:10.928Z,7.47
2022-11-26T12:33:46.003Z,3.97
2022-11-26T12:36:12.527Z,3.90
2022-11-26T12:38:47.726Z,3.67
2022-11-26T12:41:20.437Z,4.60
2022-11-26T12:44:00.451Z,3.50
2022-11-26T12:46:34.948Z,4.77
2022-11-26T12:49:35.798Z,5.67
2022-11-26T12:52:20.895Z,4.27
2022-11-26T12:55:03.835Z,3.83
2022-11-26T12:57:33.890Z,4.47
2022-11-26T13:00:06.866Z,3.87
2022-11-26T13:02:44.335Z,4.67
2022-11-26T13:05:23.424Z,3.80
2022-11-26T13:07:56.140Z,3.60
2022-11-26T13:10:32.045Z,3.07
2022-11-26T13:13:05.034Z,3.73
2022-11-26T13:15:37.691Z,2.60
2022-11-26T13:18:05.035Z,3.20
2022-11-26T13:20:37.715Z,4.30
2022-11-26T13:23:07.282Z,4.93
2022-11-26T13:25:41.222Z,3.47
2022-11-26T13:28:20.083Z,4.13
2022-11-26T13:31:05.020Z,3.90
2022-11-26T13:33:38.217Z,4.17
2022-11-26T13:36:14.083Z,3.43
2022-11-26T13:38:44.006Z,3.80
2022-11-26T13:41:33.778Z,3.40
2022-11-26T13:44:18.755Z,4.30
2022-11-26T13:47:00.155Z,16.93
2022-11-26T13:49:32.233Z,7.13
2022-11-26T13:52:20.993Z,7.50
2022-11-26T13:54:50.598Z,12.53
2022-11-26T13:57:19.549Z,13.60
2022-11-26T13:59:50.535Z,7.00
2022-11-26T14:02:44.684Z,6.80
2022-11-26T14:05:13.215Z,10.50
2022-11-26T14:07:40.611Z,15.43
2022-11-26T14:10:26.178Z,17.77
2022-11-26T14:13:02.044Z,9.37
2022-11-26T14:15:40.789Z,9.97
2022-11-26T14:18:07.966Z,10.47
2022-11-26T14:20:53.312Z,12.40
2022-11-26T14:23:38.616Z,8.60
2022-11-26T14:26:05.231Z,8.43
2022-11-26T14:28:31.817Z,6.87
2022-11-26T14:31:07.625Z,4.27
2022-11-26T14:33:34.671Z,5.03
2022-11-26T14:36:01.282Z,5.60
2022-11-26T14:38:28.837Z,6.17
2022-11-26T14:40:56.392Z,3.90
2022-11-26T14:43:23.925Z,4.73
2022-11-26T14:46:05.673Z,4.20
2022-11-26T14:48:34.105Z,3.70
2022-11-26T14:51:01.391Z,2.80
2022-11-26T14:53:29.748Z,6.40
2022-11-26T14:55:56.716Z,5.37
2022-11-26T14:58:32.617Z,3.63
2022-11-26T15:01:04.054Z,4.87
2022-11-26T15:03:30.657Z,2.97
2022-11-26T15:05:57.368Z,4.57
2022-11-26T15:08:25.030Z,3.27
2022-11-26T15:11:00.949Z,4.90
2022-11-26T15:13:27.456Z,4.30
2022-11-26T15:15:58.592Z,3.13
2022-11-26T15:18:30.561Z,13.17
2022-11-26T15:20:57.816Z,5.47
2022-11-26T15:23:30.457Z,5.97
2022-11-26T15:25:57.482Z,8.27
2022-11-26T15:28:24.486Z,25.87
2022-11-26T15:30:58.710Z,4.83
2022-11-26T15:33:29.532Z,3.73
2022-11-26T15:35:59.333Z,7.50
2022-11-26T15:38:27.318Z,4.57
2022-11-26T15:40:55.731Z,5.57
2022-11-26T15:43:28.534Z,4.43
2022-11-26T15:45:57.510Z,3.73
2022-11-26T15:48:50.114Z,74.93
2022-11-26T15:51:35.881Z,7.60
2022-11-26T15:54:04.275Z,20.47
2022-11-26T15:56:33.368Z,6.00
2022-11-26T15:59:01.559Z,12.17
2022-11-26T16:01:30.422Z,4.50
2022-11-26T16:03:57.470Z,5.80
2022-11-26T16:06:30.139Z,4.53
2022-11-26T16:08:59.472Z,28.20
2022-11-26T16:11:26.283Z,6.70
2022-11-26T16:13:53.196Z,7.43
2022-11-26T16:16:21.827Z,4.67
2022-11-26T16:18:48.575Z,4.80
2022-11-26T16:21:19.719Z,3.63
2022-11-26T16:23:51.860Z,4.23
2022-11-26T16:26:19.568Z,18.63
2022-11-26T16:28:46.988Z,17.67
2022-11-26T16:31:14.551Z,7.83
2022-11-26T16:33:41.409Z,16.23
2022-11-26T16:36:19.138Z,4.83
2022-11-26T16:38:46.248Z,5.43
2022-11-26T16:41:13.598Z,4.20
2022-11-26T16:43:40.424Z,5.37
2022-11-26T16:46:33.737Z,4.97
2022-11-26T16:49:00.540Z,3.97
2022-11-26T16:51:27.496Z,3.90
2022-11-26T16:53:54.046Z,3.90
2022-11-26T16:56:28.501Z,4.97
2022-11-26T16:58:57.991Z,4.33
2022-11-26T17:01:24.549Z,9.10
2022-11-26T17:03:51.322Z,9.10
2022-11-26T17:06:22.926Z,5.47
2022-11-26T17:08:50.261Z,5.90
2022-11-26T17:11:17.104Z,6.00
2022-11-26T17:13:43.621Z,198.17
2022-11-26T17:16:13.261Z,112.53
2022-11-26T17:18:40.012Z,461.07
2022-11-26T17:21:06.630Z,313.30
2022-11-26T17:23:33.227Z,56.67
2022-11-26T17:26:00.996Z,20.23
2022-11-26T17:28:27.879Z,8.50
2022-11-26T17:30:55.914Z,6.70
2022-11-26T17:33:22.596Z,6.13
2022-11-26T17:35:49.293Z,5.10
2022-11-26T17:38:19.982Z,7.43
2022-11-26T17:40:47.129Z,13.10
2022-11-26T17:43:13.983Z,9.77
2022-11-26T17:45:41.054Z,4.73
2022-11-26T17:48:11.084Z,15.33
2022-11-26T17:50:37.688Z,11.53
2022-11-26T17:53:04.255Z,9.23
2022-11-26T17:55:31.511Z,8.50
2022-11-26T17:57:58.425Z,9.87
2022-11-26T18:00:28.142Z,6.13
2022-11-26T18:02:55.225Z,7.70
2022-11-26T18:05:22.581Z,7.17
2022-11-26T18:07:50.258Z,16.43
2022-11-26T18:10:18.142Z,12.83
2022-11-26T18:12:45.060Z,11.77
2022-11-26T18:15:19.236Z,7.90
2022-11-26T18:17:50.975Z,9.03
2022-11-26T18:20:18.890Z,7.87
2022-11-26T18:22:46.933Z,8.50
2022-11-26T18:25:14.285Z,9.10
2022-11-26T18:27:40.946Z,17.47
2022-11-26T18:30:07.919Z,9.10
2022-11-26T18:32:35.266Z,8.50
2022-11-26T18:35:02.030Z,10.90
2022-11-26T18:37:29.078Z,11.90
2022-11-26T18:39:55.699Z,7.70
2022-11-26T18:42:36.636Z,8.90
2022-11-26T18:45:05.164Z,7.57
2022-11-26T18:47:31.735Z,7.00
2022-11-26T18:49:58.527Z,8.40
2022-11-26T18:52:25.163Z,7.83
2022-11-26T18:54:51.848Z,7.63
2022-11-26T18:57:18.474Z,7.53
2022-11-26T18:59:46.618Z,13.60
2022-11-26T19:02:13.958Z,9.10
2022-11-26T19:04:40.608Z,11.13
2022-11-26T19:07:08.310Z,10.60
2022-11-26T19:09:34.933Z,10.27
2022-11-26T19:12:01.685Z,8.83
2022-11-26T19:14:28.354Z,16.30
2022-11-26T19:16:55.082Z,10.50
2022-11-26T19:19:22.710Z,8.70
2022-11-26T19:21:50.385Z,9.07
2022-11-26T19:24:17.182Z,9.27
2022-11-26T19:26:43.991Z,11.27
2022-11-26T19:29:12.079Z,10.27
2022-11-26T19:31:39.939Z,8.27
2022-11-26T19:34:10.073Z,7.83
2022-11-26T19:36:37.088Z,9.40
2022-11-26T19:39:04.364Z,8.07
2022-11-26T19:41:31.018Z,7.30
2022-11-26T19:43:58.237Z,9.63
2022-11-26T19:46:25.716Z,8.67
2022-11-26T19:48:53.817Z,10.13
2022-11-26T19:51:21.538Z,8.73
2022-11-26T19:53:49.393Z,7.73
2022-11-26T19:56:17.728Z,7.37
2022-11-26T19:58:44.432Z,9.33
2022-11-26T20:01:12.313Z,6.57
2022-11-26T20:03:39.078Z,6.03
2022-11-26T20:06:06.778Z,7.70
2022-11-26T20:08:38.443Z,7.90
2022-11-26T20:11:06.153Z,7.47
2022-11-26T20:13:34.903Z,7.10
2022-11-26T20:16:05.766Z,8.73
2022-11-26T20:18:32.558Z,8.07
2022-11-26T20:21:03.425Z,7.23
2022-11-26T20:23:30.465Z,7.17
2022-11-26T20:25:57.328Z,6.97
2022-11-26T20:28:25.078Z,8.30
2022-11-26T20:30:52.079Z,6.93
2022-11-26T20:33:19.021Z,8.27
2022-11-26T20:35:46.053Z,8.40
2022-11-26T20:38:12.875Z,9.07
2022-11-26T20:40:42.995Z,6.80
2022-11-26T20:43:09.943Z,7.20
2022-11-26T20:45:37.247Z,6.73
2022-11-26T20:48:05.375Z,8.17
2022-11-26T20:50:32.254Z,6.97
2022-11-26T20:52:58.892Z,8.93
2022-11-26T20:55:25.804Z,6.93
2022-11-26T20:57:52.668Z,9.67
2022-11-26T21:00:22.457Z,6.20
2022-11-26T21:02:52.877Z,7.67
2022-11-26T21:05:21.307Z,5.47
2022-11-26T21:07:49.119Z,6.80
2022-11-26T21:10:16.413Z,6.70
2022-11-26T21:12:43.023Z,6.60
2022-11-26T21:15:10.026Z,5.43
2022-11-26T21:17:36.829Z,7.77
2022-11-26T21:20:03.657Z,6.47
2022-11-26T21:22:30.217Z,6.63
2022-11-26T21:24:56.826Z,7.30
2022-11-26T21:27:23.584Z,5.33
2022-11-26T21:29:50.593Z,6.60
2022-11-26T21:32:17.219Z,6.40
2022-11-26T21:34:43.712Z,8.30
2022-11-26T21:37:10.337Z,7.27
2022-11-26T21:39:37.052Z,7.03
2022-11-26T21:42:03.851Z,8.23
2022-11-26T21:44:30.358Z,9.20
2022-11-26T21:46:57.081Z,8.80
2022-11-26T21:49:23.726Z,8.47
2022-11-26T21:51:50.419Z,8.87
2022-11-26T21:54:16.963Z,7.90
2022-11-26T21:56:43.551Z,8.10
2022-11-26T21:59:10.587Z,8.70
2022-11-26T22:01:37.817Z,8.57
2022-11-26T22:04:07.267Z,7.77
2022-11-26T22:06:34.209Z,8.50
2022-11-26T22:09:01.194Z,10.40
2022-11-26T22:11:28.999Z,9.23
2022-11-26T22:13:55.809Z,8.05
2022-11-26T22:16:23.242Z,11.53
2022-11-26T22:18:50.554Z,8.63
2022-11-26T22:21:21.977Z,8.50
2022-11-26T22:23:49.418Z,8.48
2022-11-26T22:26:16.412Z,8.55
2022-11-26T22:28:43.010Z,9.13
2022-11-26T22:31:10.269Z,8.07
2022-11-26T22:33:37.769Z,8.43
2022-11-26T22:36:04.521Z,8.05
2022-11-26T22:38:32.387Z,8.67
2022-11-26T22:41:03.098Z,6.60
2022-11-26T22:43:30.166Z,7.47
2022-11-26T22:45:57.277Z,7.18
2022-11-26T22:48:24.101Z,7.37
2022-11-26T22:50:54.258Z,7.68
2022-11-26T22:53:21.679Z,7.90
2022-11-26T22:55:52.336Z,7.75
2022-11-26T22:58:19.249Z,8.20
2022-11-26T23:00:47.699Z,7.93
2022-11-26T23:03:14.775Z,9.48
2022-11-26T23:05:41.450Z,7.90
2022-11-26T23:08:08.661Z,11.20
2022-11-26T23:10:35.608Z,8.73
2022-11-26T23:13:02.593Z,9.20
2022-11-26T23:15:29.109Z,8.38
2022-11-26T23:17:55.695Z,11.07
2022-11-26T23:20:22.174Z,9.43
2022-11-26T23:22:48.752Z,12.18
2022-11-26T23:25:15.470Z,10.47
2022-11-26T23:27:42.022Z,9.80
2022-11-26T23:30:09.016Z,6.68
2022-11-26T23:32:35.885Z,3.95
2022-11-26T23:35:02.446Z,7.13
2022-11-26T23:37:28.943Z,3.80
2022-11-26T23:39:55.647Z,5.40
2022-11-26T23:42:22.327Z,5.53
2022-11-26T23:44:48.963Z,10.13
2022-11-26T23:47:15.559Z,3.47
2022-11-26T23:49:42.368Z,4.40
2022-11-26T23:52:09.358Z,4.03
2022-11-26T23:54:35.891Z,4.30
2022-11-26T23:57:02.553Z,5.93
2022-11-26T23:59:29.205Z,5.40
